sensor_id;sensor_type;location;lat;lon;timestamp;P1;durP1;ratioP1;P2;durP2;ratioP2
69026;SDS011;56080;47.594;19.116;2022-10-19T00:02:37;1293.10;;;999.30;;
69026;SDS011;56080;47.594;19.116;2022-10-19T00:07:37;1293.10;;;999.30;;
69026;SDS011;56080;47.594;19.116;2022-10-19T00:12:37;1248.80;;;990.70;;
69026;SDS011;56080;47.594;19.116;2022-10-19T00:17:37;1248.80;;;990.70;;
69026;SDS011;56080;47.594;19.116;2022-10-19T00:22:37;1258.70;;;984.30;;
69026;SDS011;56080;47.594;19.116;2022-10-19T00:27:37;1258.70;;;984.30;;
69026;SDS011;56080;47.594;19.116;2022-10-19T00:32:37;1304.00;;;910.70;;
69026;SDS011;56080;47.594;19.116;2022-10-19T00:37:38;1304.00;;;910.70;;
69026;SDS011;56080;47.594;19.116;2022-10-19T00:42:37;1305.30;;;949.30;;
69026;SDS011;56080;47.594;19.116;2022-10-19T00:47:37;1305.30;;;949.30;;
69026;SDS011;56080;47.594;19.116;2022-10-19T00:52:37;1298.10;;;954.90;;
69026;SDS011;56080;47.594;19.116;2022-10-19T00:57:38;1298.10;;;954.90;;
69026;SDS011;56080;47.594;19.116;2022-10-19T01:02:37;1297.90;;;951.10;;
69026;SDS011;56080;47.594;19.116;2022-10-19T01:07:37;1297.90;;;951.10;;
69026;SDS011;56080;47.594;19.116;2022-10-19T01:12:57;1293.40;;;935.10;;
69026;SDS011;56080;47.594;19.116;2022-10-19T01:17:46;1293.40;;;935.10;;
69026;SDS011;56080;47.594;19.116;2022-10-19T01:37:48;1277.60;;;993.60;;
69026;SDS011;56080;47.594;19.116;2022-10-19T01:42:44;1266.60;;;992.20;;
69026;SDS011;56080;47.594;19.116;2022-10-19T01:52:38;1220.80;;;994.90;;
69026;SDS011;56080;47.594;19.116;2022-10-19T01:57:43;1220.80;;;994.90;;
69026;SDS011;56080;47.594;19.116;2022-10-19T02:02:39;1227.10;;;999.90;;
69026;SDS011;56080;47.594;19.116;2022-10-19T02:07:39;1227.10;;;999.90;;
69026;SDS011;56080;47.594;19.116;2022-10-19T02:12:38;1214.10;;;999.90;;
69026;SDS011;56080;47.594;19.116;2022-10-19T02:17:41;1214.10;;;999.90;;
69026;SDS011;56080;47.594;19.116;2022-10-19T02:22:37;1237.90;;;989.00;;
69026;SDS011;56080;47.594;19.116;2022-10-19T02:27:38;1237.90;;;989.00;;
69026;SDS011;56080;47.594;19.116;2022-10-19T02:32:37;1298.80;;;980.70;;
69026;SDS011;56080;47.594;19.116;2022-10-19T02:37:37;1298.80;;;980.70;;
69026;SDS011;56080;47.594;19.116;2022-10-19T02:42:42;1271.80;;;984.70;;
69026;SDS011;56080;47.594;19.116;2022-10-19T02:47:41;1271.80;;;984.70;;
69026;SDS011;56080;47.594;19.116;2022-10-19T02:52:38;1266.40;;;986.00;;
69026;SDS011;56080;47.594;19.116;2022-10-19T02:57:37;1266.40;;;986.00;;
69026;SDS011;56080;47.594;19.116;2022-10-19T03:02:37;1199.80;;;987.10;;
69026;SDS011;56080;47.594;19.116;2022-10-19T03:07:37;1199.80;;;987.10;;
69026;SDS011;56080;47.594;19.116;2022-10-19T03:12:37;1146.60;;;979.50;;
69026;SDS011;56080;47.594;19.116;2022-10-19T03:17:37;1146.60;;;979.50;;
69026;SDS011;56080;47.594;19.116;2022-10-19T03:22:37;1155.40;;;982.40;;
69026;SDS011;56080;47.594;19.116;2022-10-19T03:27:37;1155.40;;;982.40;;
69026;SDS011;56080;47.594;19.116;2022-10-19T03:32:37;1146.50;;;999.90;;
69026;SDS011;56080;47.594;19.116;2022-10-19T03:37:37;1146.50;;;999.90;;
69026;SDS011;56080;47.594;19.116;2022-10-19T03:42:38;1145.70;;;999.90;;
69026;SDS011;56080;47.594;19.116;2022-10-19T03:47:37;1145.70;;;999.90;;
69026;SDS011;56080;47.594;19.116;2022-10-19T03:52:37;1161.30;;;995.70;;
69026;SDS011;56080;47.594;19.116;2022-10-19T03:57:37;1161.30;;;995.70;;
69026;SDS011;56080;47.594;19.116;2022-10-19T04:02:38;1133.90;;;982.70;;
69026;SDS011;56080;47.594;19.116;2022-10-19T04:07:37;1133.90;;;982.70;;
69026;SDS011;56080;47.594;19.116;2022-10-19T04:12:37;1121.20;;;996.80;;
69026;SDS011;56080;47.594;19.116;2022-10-19T04:17:37;1121.20;;;996.80;;
69026;SDS011;56080;47.594;19.116;2022-10-19T04:22:37;1119.60;;;977.60;;
69026;SDS011;56080;47.594;19.116;2022-10-19T04:27:37;1119.60;;;977.60;;
69026;SDS011;56080;47.594;19.116;2022-10-19T04:32:37;1135.80;;;997.60;;
69026;SDS011;56080;47.594;19.116;2022-10-19T04:37:37;1135.80;;;997.60;;
69026;SDS011;56080;47.594;19.116;2022-10-19T04:42:37;1241.10;;;993.10;;
69026;SDS011;56080;47.594;19.116;2022-10-19T04:47:37;1241.10;;;993.10;;
69026;SDS011;56080;47.594;19.116;2022-10-19T04:52:37;1205.70;;;987.50;;
69026;SDS011;56080;47.594;19.116;2022-10-19T04:57:38;1205.70;;;987.50;;
69026;SDS011;56080;47.594;19.116;2022-10-19T05:02:41;1213.40;;;999.90;;
69026;SDS011;56080;47.594;19.116;2022-10-19T05:07:37;1213.40;;;999.90;;
69026;SDS011;56080;47.594;19.116;2022-10-19T05:12:37;1118.40;;;996.10;;
69026;SDS011;56080;47.594;19.116;2022-10-19T05:22:37;1219.30;;;999.90;;
69026;SDS011;56080;47.594;19.116;2022-10-19T05:27:37;1219.30;;;999.90;;
69026;SDS011;56080;47.594;19.116;2022-10-19T05:32:37;1219.10;;;999.90;;
69026;SDS011;56080;47.594;19.116;2022-10-19T05:37:37;1219.10;;;999.90;;
69026;SDS011;56080;47.594;19.116;2022-10-19T05:42:37;1220.00;;;999.90;;
69026;SDS011;56080;47.594;19.116;2022-10-19T05:47:42;1220.00;;;999.90;;
69026;SDS011;56080;47.594;19.116;2022-10-19T05:52:38;1206.60;;;999.90;;
69026;SDS011;56080;47.594;19.116;2022-10-19T05:57:37;1206.60;;;999.90;;
69026;SDS011;56080;47.594;19.116;2022-10-19T06:02:37;1196.20;;;999.90;;
69026;SDS011;56080;47.594;19.116;2022-10-19T06:07:37;1196.20;;;999.90;;
69026;SDS011;56080;47.594;19.116;2022-10-19T06:12:37;1215.10;;;999.90;;
69026;SDS011;56080;47.594;19.116;2022-10-19T06:17:38;1215.10;;;999.90;;
69026;SDS011;56080;47.594;19.116;2022-10-19T06:22:38;1223.80;;;999.90;;
69026;SDS011;56080;47.594;19.116;2022-10-19T06:27:40;1223.80;;;999.90;;
69026;SDS011;56080;47.594;19.116;2022-10-19T06:32:37;1261.60;;;999.90;;
69026;SDS011;56080;47.594;19.116;2022-10-19T06:37:37;1261.60;;;999.90;;
69026;SDS011;56080;47.594;19.116;2022-10-19T06:42:37;1266.40;;;999.90;;
69026;SDS011;56080;47.594;19.116;2022-10-19T06:47:42;1266.40;;;999.90;;
69026;SDS011;56080;47.594;19.116;2022-10-19T06:52:37;1287.00;;;999.90;;
69026;SDS011;56080;47.594;19.116;2022-10-19T06:57:37;1287.00;;;999.90;;
69026;SDS011;56080;47.594;19.116;2022-10-19T07:02:37;1298.80;;;985.40;;
69026;SDS011;56080;47.594;19.116;2022-10-19T07:07:37;1298.80;;;985.40;;
69026;SDS011;56080;47.594;19.116;2022-10-19T07:12:37;1310.80;;;999.90;;
69026;SDS011;56080;47.594;19.116;2022-10-19T07:17:37;1310.80;;;999.90;;
69026;SDS011;56080;47.594;19.116;2022-10-19T07:22:38;1340.00;;;996.40;;
69026;SDS011;56080;47.594;19.116;2022-10-19T07:27:37;1340.00;;;996.40;;
69026;SDS011;56080;47.594;19.116;2022-10-19T07:32:38;1362.00;;;993.70;;
69026;SDS011;56080;47.594;19.116;2022-10-19T07:37:37;1362.00;;;993.70;;
69026;SDS011;56080;47.594;19.116;2022-10-19T07:42:39;1387.90;;;999.90;;
69026;SDS011;56080;47.594;19.116;2022-10-19T07:47:37;1387.90;;;999.90;;
69026;SDS011;56080;47.594;19.116;2022-10-19T07:52:37;1464.30;;;999.90;;
69026;SDS011;56080;47.594;19.116;2022-10-19T07:57:37;1464.30;;;999.90;;
69026;SDS011;56080;47.594;19.116;2022-10-19T08:02:47;1521.50;;;961.70;;
69026;SDS011;56080;47.594;19.116;2022-10-19T08:07:37;1521.50;;;961.70;;
69026;SDS011;56080;47.594;19.116;2022-10-19T08:12:37;1569.00;;;945.40;;
69026;SDS011;56080;47.594;19.116;2022-10-19T08:17:37;1569.00;;;945.40;;
69026;SDS011;56080;47.594;19.116;2022-10-19T08:22:37;1649.90;;;999.90;;
69026;SDS011;56080;47.594;19.116;2022-10-19T08:27:39;1649.90;;;999.90;;
69026;SDS011;56080;47.594;19.116;2022-10-19T08:32:37;1679.40;;;984.20;;
69026;SDS011;56080;47.594;19.116;2022-10-19T08:37:47;1679.40;;;984.20;;
69026;SDS011;56080;47.594;19.116;2022-10-19T08:42:46;1708.00;;;972.40;;
69026;SDS011;56080;47.594;19.116;2022-10-19T08:52:45;1732.00;;;972.60;;
69026;SDS011;56080;47.594;19.116;2022-10-19T08:57:49;1732.00;;;972.60;;
69026;SDS011;56080;47.594;19.116;2022-10-19T09:07:39;1748.00;;;990.20;;
69026;SDS011;56080;47.594;19.116;2022-10-19T09:12:46;1762.80;;;965.10;;
69026;SDS011;56080;47.594;19.116;2022-10-19T09:32:37;1797.50;;;976.20;;
69026;SDS011;56080;47.594;19.116;2022-10-19T09:42:40;1756.30;;;983.80;;
69026;SDS011;56080;47.594;19.116;2022-10-19T09:47:44;1756.30;;;983.80;;
69026;SDS011;56080;47.594;19.116;2022-10-19T09:52:38;1753.60;;;982.30;;
69026;SDS011;56080;47.594;19.116;2022-10-19T09:57:41;1753.60;;;982.30;;
69026;SDS011;56080;47.594;19.116;2022-10-19T10:02:39;1741.10;;;999.90;;
69026;SDS011;56080;47.594;19.116;2022-10-19T10:07:42;1741.10;;;999.90;;
69026;SDS011;56080;47.594;19.116;2022-10-19T10:12:38;1729.60;;;986.70;;
69026;SDS011;56080;47.594;19.116;2022-10-19T10:17:39;1729.60;;;986.70;;
69026;SDS011;56080;47.594;19.116;2022-10-19T10:22:39;1719.50;;;999.90;;
69026;SDS011;56080;47.594;19.116;2022-10-19T10:27:38;1719.50;;;999.90;;
69026;SDS011;56080;47.594;19.116;2022-10-19T10:32:39;1698.20;;;999.90;;
69026;SDS011;56080;47.594;19.116;2022-10-19T10:37:47;1698.20;;;999.90;;
69026;SDS011;56080;47.594;19.116;2022-10-19T10:42:40;1679.20;;;999.90;;
69026;SDS011;56080;47.594;19.116;2022-10-19T10:47:38;1679.20;;;999.90;;
69026;SDS011;56080;47.594;19.116;2022-10-19T10:52:39;1652.20;;;999.90;;
69026;SDS011;56080;47.594;19.116;2022-10-19T10:57:42;1652.20;;;999.90;;
69026;SDS011;56080;47.594;19.116;2022-10-19T11:02:40;1652.20;;;999.90;;
69026;SDS011;56080;47.594;19.116;2022-10-19T11:07:42;1652.20;;;999.90;;
69026;SDS011;56080;47.594;19.116;2022-10-19T11:12:50;1658.90;;;999.90;;
69026;SDS011;56080;47.594;19.116;2022-10-19T11:17:47;1658.90;;;999.90;;
69026;SDS011;56080;47.594;19.116;2022-10-19T11:32:48;1628.90;;;999.90;;
69026;SDS011;56080;47.594;19.116;2022-10-19T11:42:56;1606.70;;;999.90;;
69026;SDS011;56080;47.594;19.116;2022-10-19T11:52:50;1604.80;;;999.90;;
69026;SDS011;56080;47.594;19.116;2022-10-19T12:07:55;1608.30;;;999.90;;
69026;SDS011;56080;47.594;19.116;2022-10-19T12:12:46;1616.00;;;999.90;;
69026;SDS011;56080;47.594;19.116;2022-10-19T12:17:40;1616.00;;;999.90;;
69026;SDS011;56080;47.594;19.116;2022-10-19T12:22:39;1596.90;;;995.30;;
69026;SDS011;56080;47.594;19.116;2022-10-19T12:27:41;1596.90;;;995.30;;
69026;SDS011;56080;47.594;19.116;2022-10-19T12:32:43;1578.30;;;999.90;;
69026;SDS011;56080;47.594;19.116;2022-10-19T12:37:48;1578.30;;;999.90;;
69026;SDS011;56080;47.594;19.116;2022-10-19T12:47:37;1588.20;;;999.90;;
69026;SDS011;56080;47.594;19.116;2022-10-19T12:52:47;1584.10;;;999.90;;
69026;SDS011;56080;47.594;19.116;2022-10-19T12:57:38;1584.10;;;999.90;;
69026;SDS011;56080;47.594;19.116;2022-10-19T13:02:40;1581.50;;;999.90;;
69026;SDS011;56080;47.594;19.116;2022-10-19T13:07:40;1581.50;;;999.90;;
69026;SDS011;56080;47.594;19.116;2022-10-19T13:12:48;1570.10;;;999.90;;
69026;SDS011;56080;47.594;19.116;2022-10-19T13:17:44;1570.10;;;999.90;;
69026;SDS011;56080;47.594;19.116;2022-10-19T13:22:37;1587.00;;;999.90;;
69026;SDS011;56080;47.594;19.116;2022-10-19T13:27:44;1587.00;;;999.90;;
69026;SDS011;56080;47.594;19.116;2022-10-19T13:32:45;1619.00;;;999.90;;
69026;SDS011;56080;47.594;19.116;2022-10-19T13:37:44;1619.00;;;999.90;;
69026;SDS011;56080;47.594;19.116;2022-10-19T13:47:49;1588.20;;;999.90;;
69026;SDS011;56080;47.594;19.116;2022-10-19T14:07:54;1605.20;;;999.90;;
69026;SDS011;56080;47.594;19.116;2022-10-19T14:12:39;1633.10;;;999.90;;
69026;SDS011;56080;47.594;19.116;2022-10-19T14:17:40;1633.10;;;999.90;;
69026;SDS011;56080;47.594;19.116;2022-10-19T14:22:40;1615.60;;;999.90;;
69026;SDS011;56080;47.594;19.116;2022-10-19T14:27:39;1615.60;;;999.90;;
69026;SDS011;56080;47.594;19.116;2022-10-19T14:32:38;1642.30;;;999.90;;
69026;SDS011;56080;47.594;19.116;2022-10-19T14:37:37;1642.30;;;999.90;;
69026;SDS011;56080;47.594;19.116;2022-10-19T14:42:47;1605.40;;;999.90;;
69026;SDS011;56080;47.594;19.116;2022-10-19T14:52:41;1610.00;;;999.90;;
69026;SDS011;56080;47.594;19.116;2022-10-19T14:57:39;1610.00;;;999.90;;
69026;SDS011;56080;47.594;19.116;2022-10-19T15:02:42;1563.60;;;999.90;;
69026;SDS011;56080;47.594;19.116;2022-10-19T15:07:42;1563.60;;;999.90;;
69026;SDS011;56080;47.594;19.116;2022-10-19T15:12:43;1549.50;;;999.90;;
69026;SDS011;56080;47.594;19.116;2022-10-19T15:22:41;1532.60;;;999.90;;
69026;SDS011;56080;47.594;19.116;2022-10-19T15:27:40;1532.60;;;999.90;;
69026;SDS011;56080;47.594;19.116;2022-10-19T15:32:45;1517.90;;;999.90;;
69026;SDS011;56080;47.594;19.116;2022-10-19T15:37:39;1517.90;;;999.90;;
69026;SDS011;56080;47.594;19.116;2022-10-19T15:42:41;1509.40;;;999.90;;
69026;SDS011;56080;47.594;19.116;2022-10-19T15:47:37;1509.40;;;999.90;;
69026;SDS011;56080;47.594;19.116;2022-10-19T15:52:39;1467.30;;;999.90;;
69026;SDS011;56080;47.594;19.116;2022-10-19T15:57:37;1467.30;;;999.90;;
69026;SDS011;56080;47.594;19.116;2022-10-19T16:02:37;1410.00;;;999.90;;
69026;SDS011;56080;47.594;19.116;2022-10-19T16:07:39;1410.00;;;999.90;;
69026;SDS011;56080;47.594;19.116;2022-10-19T16:12:37;1379.10;;;999.90;;
69026;SDS011;56080;47.594;19.116;2022-10-19T16:17:38;1379.10;;;999.90;;
69026;SDS011;56080;47.594;19.116;2022-10-19T16:22:38;1448.40;;;999.90;;
69026;SDS011;56080;47.594;19.116;2022-10-19T16:27:38;1448.40;;;999.90;;
69026;SDS011;56080;47.594;19.116;2022-10-19T16:32:37;1449.80;;;999.90;;
69026;SDS011;56080;47.594;19.116;2022-10-19T16:37:38;1449.80;;;999.90;;
69026;SDS011;56080;47.594;19.116;2022-10-19T16:42:41;1455.60;;;999.90;;
69026;SDS011;56080;47.594;19.116;2022-10-19T16:47:38;1455.60;;;999.90;;
69026;SDS011;56080;47.594;19.116;2022-10-19T16:52:38;1467.10;;;999.90;;
69026;SDS011;56080;47.594;19.116;2022-10-19T17:02:38;1433.10;;;999.90;;
69026;SDS011;56080;47.594;19.116;2022-10-19T17:07:38;1433.10;;;999.90;;
69026;SDS011;56080;47.594;19.116;2022-10-19T17:12:38;1407.00;;;999.90;;
69026;SDS011;56080;47.594;19.116;2022-10-19T17:17:38;1407.00;;;999.90;;
69026;SDS011;56080;47.594;19.116;2022-10-19T17:22:38;1389.00;;;999.90;;
69026;SDS011;56080;47.594;19.116;2022-10-19T17:32:38;1408.20;;;999.90;;
69026;SDS011;56080;47.594;19.116;2022-10-19T17:37:38;1408.20;;;999.90;;
69026;SDS011;56080;47.594;19.116;2022-10-19T17:42:38;1401.70;;;999.90;;
69026;SDS011;56080;47.594;19.116;2022-10-19T17:47:38;1401.70;;;999.90;;
69026;SDS011;56080;47.594;19.116;2022-10-19T17:52:38;1405.30;;;999.90;;
69026;SDS011;56080;47.594;19.116;2022-10-19T17:57:40;1405.30;;;999.90;;
69026;SDS011;56080;47.594;19.116;2022-10-19T18:02:38;1406.10;;;999.90;;
69026;SDS011;56080;47.594;19.116;2022-10-19T18:12:39;1417.60;;;999.90;;
69026;SDS011;56080;47.594;19.116;2022-10-19T18:17:38;1417.60;;;999.90;;
69026;SDS011;56080;47.594;19.116;2022-10-19T18:22:38;1417.60;;;999.90;;
69026;SDS011;56080;47.594;19.116;2022-10-19T18:27:38;1434.20;;;999.90;;
69026;SDS011;56080;47.594;19.116;2022-10-19T18:32:38;1434.20;;;999.90;;
69026;SDS011;56080;47.594;19.116;2022-10-19T18:37:38;1411.40;;;999.90;;
69026;SDS011;56080;47.594;19.116;2022-10-19T18:42:39;1411.40;;;999.90;;
69026;SDS011;56080;47.594;19.116;2022-10-19T18:47:38;1398.20;;;999.50;;
69026;SDS011;56080;47.594;19.116;2022-10-19T18:52:38;1398.20;;;999.50;;
69026;SDS011;56080;47.594;19.116;2022-10-19T18:57:42;1404.90;;;992.80;;
69026;SDS011;56080;47.594;19.116;2022-10-19T19:02:51;1387.50;;;993.80;;
69026;SDS011;56080;47.594;19.116;2022-10-19T19:07:38;1387.50;;;993.80;;
69026;SDS011;56080;47.594;19.116;2022-10-19T19:12:41;1387.50;;;993.80;;
69026;SDS011;56080;47.594;19.116;2022-10-19T19:17:38;1382.10;;;990.30;;
69026;SDS011;56080;47.594;19.116;2022-10-19T19:22:38;1382.10;;;990.30;;
69026;SDS011;56080;47.594;19.116;2022-10-19T19:27:42;1371.00;;;990.40;;
69026;SDS011;56080;47.594;19.116;2022-10-19T19:32:38;1371.00;;;990.40;;
69026;SDS011;56080;47.594;19.116;2022-10-19T19:37:39;1376.60;;;984.20;;
69026;SDS011;56080;47.594;19.116;2022-10-19T19:42:38;1376.60;;;984.20;;
69026;SDS011;56080;47.594;19.116;2022-10-19T19:47:37;1369.90;;;994.70;;
69026;SDS011;56080;47.594;19.116;2022-10-19T19:52:38;1369.90;;;994.70;;
69026;SDS011;56080;47.594;19.116;2022-10-19T19:57:38;1366.10;;;997.80;;
69026;SDS011;56080;47.594;19.116;2022-10-19T20:02:42;1366.10;;;997.80;;
69026;SDS011;56080;47.594;19.116;2022-10-19T20:07:38;1346.50;;;985.30;;
69026;SDS011;56080;47.594;19.116;2022-10-19T20:12:38;1346.50;;;985.30;;
69026;SDS011;56080;47.594;19.116;2022-10-19T20:17:38;1339.00;;;983.80;;
69026;SDS011;56080;47.594;19.116;2022-10-19T20:22:38;1339.00;;;983.80;;
69026;SDS011;56080;47.594;19.116;2022-10-19T20:27:38;1299.00;;;994.70;;
69026;SDS011;56080;47.594;19.116;2022-10-19T20:32:38;1299.00;;;994.70;;
69026;SDS011;56080;47.594;19.116;2022-10-19T20:37:39;1295.00;;;984.00;;
69026;SDS011;56080;47.594;19.116;2022-10-19T20:42:38;1295.00;;;984.00;;
69026;SDS011;56080;47.594;19.116;2022-10-19T20:47:38;1301.00;;;982.50;;
69026;SDS011;56080;47.594;19.116;2022-10-19T20:52:38;1301.00;;;982.50;;
69026;SDS011;56080;47.594;19.116;2022-10-19T20:57:39;1277.30;;;985.40;;
69026;SDS011;56080;47.594;19.116;2022-10-19T21:02:38;1277.30;;;985.40;;
69026;SDS011;56080;47.594;19.116;2022-10-19T21:07:38;1240.70;;;986.00;;
69026;SDS011;56080;47.594;19.116;2022-10-19T21:12:38;1240.70;;;986.00;;
69026;SDS011;56080;47.594;19.116;2022-10-19T21:17:38;1184.90;;;992.40;;
69026;SDS011;56080;47.594;19.116;2022-10-19T21:22:38;1184.90;;;992.40;;
69026;SDS011;56080;47.594;19.116;2022-10-19T21:27:38;1239.90;;;987.40;;
69026;SDS011;56080;47.594;19.116;2022-10-19T21:32:38;1239.90;;;987.40;;
69026;SDS011;56080;47.594;19.116;2022-10-19T21:37:38;1290.10;;;973.10;;
69026;SDS011;56080;47.594;19.116;2022-10-19T21:42:37;1290.10;;;973.10;;
69026;SDS011;56080;47.594;19.116;2022-10-19T21:47:37;1269.60;;;973.30;;
69026;SDS011;56080;47.594;19.116;2022-10-19T21:52:38;1269.60;;;973.30;;
69026;SDS011;56080;47.594;19.116;2022-10-19T21:57:38;798.20;;;528.80;;
69026;SDS011;56080;47.594;19.116;2022-10-19T22:02:38;798.20;;;528.80;;
69026;SDS011;56080;47.594;19.116;2022-10-19T22:07:38;1098.90;;;824.70;;
69026;SDS011;56080;47.594;19.116;2022-10-19T22:17:38;1049.60;;;740.20;;
69026;SDS011;56080;47.594;19.116;2022-10-19T22:22:38;1049.60;;;740.20;;
69026;SDS011;56080;47.594;19.116;2022-10-19T22:27:38;1085.80;;;941.70;;
69026;SDS011;56080;47.594;19.116;2022-10-19T22:32:38;1085.80;;;941.70;;
69026;SDS011;56080;47.594;19.116;2022-10-19T22:37:38;938.60;;;487.20;;
69026;SDS011;56080;47.594;19.116;2022-10-19T22:42:38;938.60;;;487.20;;
69026;SDS011;56080;47.594;19.116;2022-10-19T22:52:38;373.30;;;105.60;;
69026;SDS011;56080;47.594;19.116;2022-10-19T22:57:38;299.80;;;80.20;;
69026;SDS011;56080;47.594;19.116;2022-10-19T23:02:38;299.80;;;80.20;;
69026;SDS011;56080;47.594;19.116;2022-10-19T23:07:38;464.40;;;135.20;;
69026;SDS011;56080;47.594;19.116;2022-10-19T23:12:38;464.40;;;135.20;;
69026;SDS011;56080;47.594;19.116;2022-10-19T23:17:38;366.40;;;76.50;;
69026;SDS011;56080;47.594;19.116;2022-10-19T23:27:38;462.90;;;131.00;;
69026;SDS011;56080;47.594;19.116;2022-10-19T23:32:38;462.90;;;131.00;;
69026;SDS011;56080;47.594;19.116;2022-10-19T23:37:38;549.60;;;168.60;;
69026;SDS011;56080;47.594;19.116;2022-10-19T23:42:38;549.60;;;168.60;;
69026;SDS011;56080;47.594;19.116;2022-10-19T23:47:37;488.90;;;147.20;;
69026;SDS011;56080;47.594;19.116;2022-10-19T23:52:37;488.90;;;147.20;;
69026;SDS011;56080;47.594;19.116;2022-10-19T23:57:38;988.30;;;371.40;;
